Terminal Aerodrome Forecast
Issued by NWS Lake Charles, LA

Home | Current Version | Previous Version | Text Only | Print | Product List | Glossary On
Versions: 1 2 3 4 5 6 7 8 9 10 11 12 13 14 15 16 17 18 19
906
FTUS44 KLCH 261729
TAFLCH
TAF
KLCH 261729Z 2618/2718 18012G19KT P6SM SCT025
     FM270000 17009KT P6SM BKN015
     FM270300 16010KT P6SM OVC007
     FM271500 19008KT P6SM OVC025=

USA.gov is the U.S. government's official web portal to all federal, state and local government web resources and services.